Tats — ZCYJ — position and weather

sailwx.info

Track history (hours):
 
Tides and Currents Weather Stations Pressure Air Temp Water Temp Dewpoint Dewpoint Depression Visibility Wind Speed Wind Dir Waves Ship Positions

Tats

Last reported at 2016-May-30 17:31 UTC. Time now 2016-May-30 18:22 UTC.
Position N 40°43' W 074°01'.

Length 40 m; draft 2.3 m.

Type: Pleasure craft. MMSI: 319003500.

Date/timePositionNaut miles runAvg speedWind from/ knotsBaromVisibWave heightAir tempDewpointWater temp
2016-May-30 17:31N 40°43' W 074°01'0 0.0
2016-May-30 16:31N 40°43' W 074°01'0 0.0
2016-May-30 15:31N 40°43' W 074°01'0 0.0
2016-May-30 14:31N 40°43' W 074°01'0 0.0
2016-May-30 13:31N 40°43' W 074°01'0 0.0
2016-May-30 12:31N 40°43' W 074°01'0 0.0
2016-May-30 11:28N 40°43' W 074°01'0 0.0
2016-May-30 10:31N 40°43' W 074°01'0 0.0
2016-May-30 09:31N 40°43' W 074°01'0 0.0
2016-May-30 08:28N 40°43' W 074°01'0 0.0
2016-May-30 07:28N 40°43' W 074°01'0 0.0
2016-May-30 06:28N 40°43' W 074°01'0 0.0
2016-May-30 05:28N 40°43' W 074°01'0 0.0
2016-May-30 04:31N 40°43' W 074°01'0 0.0
2016-May-30 03:31N 40°43' W 074°01'0 0.0
2016-May-30 02:31N 40°43' W 074°01'0 0.0
2016-May-30 01:31N 40°43' W 074°01'0 0.0
2016-May-30 00:31N 40°43' W 074°01'0 0.0
2016-May-29 23:31N 40°43' W 074°01'0 0.1
2016-May-29 22:31N 40°43' W 074°01'0 0.0
2016-May-29 21:31N 40°43' W 074°01'0 0.0
2016-May-29 19:28N 40°43' W 074°01'0 0.0
2016-May-29 18:31N 40°43' W 074°01'0 0.0
2016-May-29 17:28N 40°43' W 074°01'0 0.0
2016-May-29 16:28N 40°43' W 074°01'0 0.0
2016-May-29 15:31N 40°43' W 074°01'1 1.2
2016-May-29 14:32N 40°43' W 074°03'0 0.0
2016-May-29 13:32N 40°43' W 074°03'0 0.0
2016-May-29 12:32N 40°43' W 074°03'0 0.0
2016-May-29 11:32N 40°43' W 074°03'0 0.0
2016-May-29 09:32N 40°43' W 074°03'0 0.0
2016-May-29 08:32N 40°43' W 074°03'0 0.0
2016-May-29 07:32N 40°43' W 074°03'0 0.0
2016-May-29 06:32N 40°43' W 074°03'0 0.0
2016-May-29 05:32N 40°43' W 074°03'0 0.0
2016-May-29 04:32N 40°43' W 074°03'0 0.0
2016-May-29 03:32N 40°43' W 074°03'0 0.0
2016-May-29 02:32N 40°43' W 074°03'0 0.0
2016-May-29 01:32N 40°43' W 074°03'0 0.0
2016-May-29 00:32N 40°43' W 074°03'0 0.0
2016-May-28 23:32N 40°43' W 074°03'0 0.0
2016-May-28 22:32N 40°43' W 074°03'0 0.0
2016-May-28 21:32N 40°43' W 074°03'0 0.0
2016-May-28 20:32N 40°43' W 074°03'0 0.0
2016-May-28 19:32N 40°43' W 074°03'0 0.0
2016-May-28 18:32N 40°43' W 074°03'0 0.0
2016-May-28 17:33N 40°43' W 074°03'0 0.1
2016-May-28 16:33N 40°43' W 074°03'0 0.0
2016-May-28 15:33N 40°43' W 074°03'0 0.0
2016-May-28 14:33N 40°43' W 074°03'9 8.5
2016-May-28 13:34N 40°34' W 074°02'4711.1
2016-May-28 09:18N 39°47' W 073°56'912.3
2016-May-28 08:32N 39°38' W 073°59'1812.2
2016-May-28 07:04N 39°20' W 074°03'1212.1
2016-May-28 06:07N 39°09' W 074°06'  
2016-May-25 16:27N 26°22' W 079°58'1213.2
2016-May-25 15:33N 26°11' W 080°02'7 6.5
2016-May-25 14:33N 26°06' W 080°07'1 0.7
2016-May-25 13:33N 26°07' W 080°06'0 0.0
2016-May-25 12:33N 26°07' W 080°06'0 0.0
2016-May-25 11:22N 26°07' W 080°06'0 0.0
2016-May-25 10:19N 26°07' W 080°06'0 0.0
2016-May-25 09:25N 26°07' W 080°06'0 0.0
2016-May-25 08:25N 26°07' W 080°06'0 0.0
2016-May-25 07:25N 26°07' W 080°06'0 0.0
2016-May-25 06:28N 26°07' W 080°06'0 0.0
2016-May-25 05:28N 26°07' W 080°06'0 0.0
2016-May-25 04:25N 26°07' W 080°06'0 0.0
2016-May-25 03:25N 26°07' W 080°06'0 0.0
2016-May-25 02:31N 26°07' W 080°06'0 0.0
2016-May-25 01:31N 26°07' W 080°06'0 0.0
2016-May-25 00:31N 26°07' W 080°06'0 0.0
2016-May-24 23:31N 26°07' W 080°06'0 0.0
2016-May-24 22:31N 26°07' W 080°06'0 0.0
2016-May-24 21:31N 26°07' W 080°06'0 0.0
2016-May-24 20:22N 26°07' W 080°06'0 0.0
2016-May-24 19:25N 26°07' W 080°06'0 0.0
2016-May-24 18:25N 26°07' W 080°06'0 0.0
2016-May-24 17:25N 26°07' W 080°06'0 0.0
2016-May-24 16:28N 26°07' W 080°06'0 0.0
2016-May-24 15:28N 26°07' W 080°06'0 0.0
2016-May-24 14:28N 26°07' W 080°06'0 0.0
2016-May-24 13:28N 26°07' W 080°06'0 0.0
2016-May-24 12:31N 26°07' W 080°06'0 0.0
2016-May-24 11:31N 26°07' W 080°06'0 0.0
2016-May-24 10:31N 26°07' W 080°06'0 0.0
2016-May-24 09:31N 26°07' W 080°06'0 0.0
2016-May-24 08:31N 26°07' W 080°06'0 0.0
2016-May-24 07:31N 26°07' W 080°06'0 0.0
2016-May-24 06:22N 26°07' W 080°06'0 0.0
2016-May-24 05:25N 26°07' W 080°06'0 0.0
2016-May-24 04:25N 26°07' W 080°06'0 0.0
2016-May-24 03:25N 26°07' W 080°06'0 0.0
2016-May-24 02:28N 26°07' W 080°06'0 0.0
2016-May-24 01:28N 26°07' W 080°06'0 0.0
2016-May-24 00:28N 26°07' W 080°06'0 0.0
2016-May-23 23:31N 26°07' W 080°06'0 0.0
2016-May-23 22:31N 26°07' W 080°06'0 0.0
2016-May-23 21:31N 26°07' W 080°06'0 0.0
2016-May-23 20:31N 26°07' W 080°06'0 0.0
2016-May-23 19:31N 26°07' W 080°06'0 0.0
2016-May-23 18:31N 26°07' W 080°06'0 0.0
2016-May-23 17:31N 26°07' W 080°06'0 0.0
2016-May-23 16:22N 26°07' W 080°06'0 0.0
2016-May-23 15:22N 26°07' W 080°06'0 0.0
2016-May-23 14:25N 26°07' W 080°06'0 0.0
2016-May-23 13:25N 26°07' W 080°06'0 0.0
2016-May-23 12:25N 26°07' W 080°06'0 0.0
2016-May-23 11:28N 26°07' W 080°06'0 0.0
2016-May-23 10:28N 26°07' W 080°06'0 0.0
2016-May-23 09:28N 26°07' W 080°06'0 0.0
2016-May-23 08:31N 26°07' W 080°06'0 0.0
2016-May-23 07:31N 26°07' W 080°06'0 0.0
2016-May-23 06:31N 26°07' W 080°06'0 0.0
2016-May-23 05:31N 26°07' W 080°06'0 0.0
2016-May-23 04:31N 26°07' W 080°06'0 0.0
2016-May-23 03:31N 26°07' W 080°06'0 0.0
2016-May-23 02:31N 26°07' W 080°06'0 0.0
2016-May-23 01:22N 26°07' W 080°06'0 0.0
2016-May-23 00:25N 26°07' W 080°06'0 0.0
2016-May-22 23:25N 26°07' W 080°06'0 0.0
2016-May-22 22:25N 26°07' W 080°06'0 0.0
2016-May-22 21:28N 26°07' W 080°06'0 0.0
2016-May-22 20:28N 26°07' W 080°06'0 0.0
2016-May-22 19:28N 26°07' W 080°06'0 0.0
2016-May-22 18:31N 26°07' W 080°06'0 0.0
2016-May-22 17:31N 26°07' W 080°06'0 0.0
2016-May-22 16:31N 26°07' W 080°06'0 0.0
2016-May-22 15:28N 26°07' W 080°06'0 0.0
2016-May-22 14:31N 26°07' W 080°06'0 0.0
2016-May-22 13:31N 26°07' W 080°06'0 0.0
2016-May-22 12:31N 26°07' W 080°06'0 0.0
2016-May-22 11:19N 26°07' W 080°06'0 0.0
2016-May-22 10:25N 26°07' W 080°06'0 0.0
2016-May-22 09:25N 26°07' W 080°06'0 0.0
2016-May-22 08:25N 26°07' W 080°06'0 0.0
2016-May-22 07:28N 26°07' W 080°06'0 0.0
2016-May-22 06:28N 26°07' W 080°06'0 0.0
2016-May-22 05:28N 26°07' W 080°06'0 0.0
2016-May-22 04:31N 26°07' W 080°06'0 0.0
2016-May-22 03:31N 26°07' W 080°06'0 0.0
2016-May-22 02:31N 26°07' W 080°06'0 0.0
2016-May-22 01:31N 26°07' W 080°06'0 0.0
2016-May-22 00:31N 26°07' W 080°06'0 0.0
2016-May-21 23:31N 26°07' W 080°06'0 0.0
2016-May-21 22:31N 26°07' W 080°06'0 0.0
2016-May-21 21:22N 26°07' W 080°06'0 0.0
2016-May-21 20:19N 26°07' W 080°06'0 0.0
2016-May-21 19:19N 26°07' W 080°06'0 0.0
2016-May-21 18:25N 26°07' W 080°06'0 0.0
2016-May-21 17:25N 26°07' W 080°06'0 0.0
2016-May-21 16:25N 26°07' W 080°06'0 0.0
2016-May-21 15:28N 26°07' W 080°06'0 0.0
2016-May-21 14:16N 26°07' W 080°06'0 0.0
2016-May-21 13:31N 26°07' W 080°06'0 0.0
2016-May-21 12:31N 26°07' W 080°06'0 0.0
2016-May-21 11:31N 26°07' W 080°06'0 0.0
2016-May-21 10:31N 26°07' W 080°06'0 0.0
2016-May-21 09:31N 26°07' W 080°06'0 0.0
2016-May-21 08:31N 26°07' W 080°06'0 0.0
2016-May-21 07:31N 26°07' W 080°06'0 0.0
2016-May-21 06:22N 26°07' W 080°06'0 0.0
2016-May-21 05:25N 26°07' W 080°06'0 0.0
2016-May-21 04:22N 26°07' W 080°06'0 0.0
2016-May-21 03:25N 26°07' W 080°06'0 0.0
2016-May-21 02:28N 26°07' W 080°06'0 0.0
2016-May-21 01:28N 26°07' W 080°06'0 0.0
2016-May-21 00:25N 26°07' W 080°06'0 0.0
2016-May-20 23:31N 26°07' W 080°06'0 0.0
2016-May-20 22:31N 26°07' W 080°06'0 0.0
2016-May-20 21:31N 26°07' W 080°06'0 0.0
2016-May-20 20:28N 26°07' W 080°06'0 0.0
2016-May-20 19:31N 26°07' W 080°06'0 0.0
2016-May-20 18:22N 26°07' W 080°06'  
Track history (hours):
 
Tides and Currents Weather Stations Pressure Air Temp Water Temp Dewpoint Dewpoint Depression Visibility Wind Speed Wind Dir Waves Ship Positions

Tats

Last reported at 2016-May-30 17:31 UTC. Time now 2016-May-30 18:22 UTC.
Position N 40°43' W 074°01'.

Length 40 m; draft 2.3 m.

Type: Pleasure craft. MMSI: 319003500.

Date/timePositionNaut miles runAvg speedWind from/ knotsBaromVisibWave heightAir tempDewpointWater temp
2016-May-30 17:31N 40°43' W 074°01'0 0.0
2016-May-30 16:31N 40°43' W 074°01'0 0.0
2016-May-30 15:31N 40°43' W 074°01'0 0.0
2016-May-30 14:31N 40°43' W 074°01'0 0.0
2016-May-30 13:31N 40°43' W 074°01'0 0.0
2016-May-30 12:31N 40°43' W 074°01'0 0.0
2016-May-30 11:28N 40°43' W 074°01'0 0.0
2016-May-30 10:31N 40°43' W 074°01'0 0.0
2016-May-30 09:31N 40°43' W 074°01'0 0.0
2016-May-30 08:28N 40°43' W 074°01'0 0.0
2016-May-30 07:28N 40°43' W 074°01'0 0.0
2016-May-30 06:28N 40°43' W 074°01'0 0.0
2016-May-30 05:28N 40°43' W 074°01'0 0.0
2016-May-30 04:31N 40°43' W 074°01'0 0.0
2016-May-30 03:31N 40°43' W 074°01'0 0.0
2016-May-30 02:31N 40°43' W 074°01'0 0.0
2016-May-30 01:31N 40°43' W 074°01'0 0.0
2016-May-30 00:31N 40°43' W 074°01'0 0.0
2016-May-29 23:31N 40°43' W 074°01'0 0.1
2016-May-29 22:31N 40°43' W 074°01'0 0.0
2016-May-29 21:31N 40°43' W 074°01'0 0.0
2016-May-29 19:28N 40°43' W 074°01'0 0.0
2016-May-29 18:31N 40°43' W 074°01'0 0.0
2016-May-29 17:28N 40°43' W 074°01'0 0.0
2016-May-29 16:28N 40°43' W 074°01'0 0.0
2016-May-29 15:31N 40°43' W 074°01'1 1.2
2016-May-29 14:32N 40°43' W 074°03'0 0.0
2016-May-29 13:32N 40°43' W 074°03'0 0.0
2016-May-29 12:32N 40°43' W 074°03'0 0.0
2016-May-29 11:32N 40°43' W 074°03'0 0.0
2016-May-29 09:32N 40°43' W 074°03'0 0.0
2016-May-29 08:32N 40°43' W 074°03'0 0.0
2016-May-29 07:32N 40°43' W 074°03'0 0.0
2016-May-29 06:32N 40°43' W 074°03'0 0.0
2016-May-29 05:32N 40°43' W 074°03'0 0.0
2016-May-29 04:32N 40°43' W 074°03'0 0.0
2016-May-29 03:32N 40°43' W 074°03'0 0.0
2016-May-29 02:32N 40°43' W 074°03'0 0.0
2016-May-29 01:32N 40°43' W 074°03'0 0.0
2016-May-29 00:32N 40°43' W 074°03'0 0.0
2016-May-28 23:32N 40°43' W 074°03'0 0.0
2016-May-28 22:32N 40°43' W 074°03'0 0.0
2016-May-28 21:32N 40°43' W 074°03'0 0.0
2016-May-28 20:32N 40°43' W 074°03'0 0.0
2016-May-28 19:32N 40°43' W 074°03'0 0.0
2016-May-28 18:32N 40°43' W 074°03'0 0.0
2016-May-28 17:33N 40°43' W 074°03'0 0.1
2016-May-28 16:33N 40°43' W 074°03'0 0.0
2016-May-28 15:33N 40°43' W 074°03'0 0.0
2016-May-28 14:33N 40°43' W 074°03'9 8.5
2016-May-28 13:34N 40°34' W 074°02'4711.1
2016-May-28 09:18N 39°47' W 073°56'912.3
2016-May-28 08:32N 39°38' W 073°59'1812.2
2016-May-28 07:04N 39°20' W 074°03'1212.1
2016-May-28 06:07N 39°09' W 074°06'  
2016-May-25 16:27N 26°22' W 079°58'1213.2
2016-May-25 15:33N 26°11' W 080°02'7 6.5
2016-May-25 14:33N 26°06' W 080°07'1 0.7
2016-May-25 13:33N 26°07' W 080°06'0 0.0
2016-May-25 12:33N 26°07' W 080°06'0 0.0
2016-May-25 11:22N 26°07' W 080°06'0 0.0
2016-May-25 10:19N 26°07' W 080°06'0 0.0
2016-May-25 09:25N 26°07' W 080°06'0 0.0
2016-May-25 08:25N 26°07' W 080°06'0 0.0
2016-May-25 07:25N 26°07' W 080°06'0 0.0
2016-May-25 06:28N 26°07' W 080°06'0 0.0
2016-May-25 05:28N 26°07' W 080°06'0 0.0
2016-May-25 04:25N 26°07' W 080°06'0 0.0
2016-May-25 03:25N 26°07' W 080°06'0 0.0
2016-May-25 02:31N 26°07' W 080°06'0 0.0
2016-May-25 01:31N 26°07' W 080°06'0 0.0
2016-May-25 00:31N 26°07' W 080°06'0 0.0
2016-May-24 23:31N 26°07' W 080°06'0 0.0
2016-May-24 22:31N 26°07' W 080°06'0 0.0
2016-May-24 21:31N 26°07' W 080°06'0 0.0
2016-May-24 20:22N 26°07' W 080°06'0 0.0
2016-May-24 19:25N 26°07' W 080°06'0 0.0
2016-May-24 18:25N 26°07' W 080°06'0 0.0
2016-May-24 17:25N 26°07' W 080°06'0 0.0
2016-May-24 16:28N 26°07' W 080°06'0 0.0
2016-May-24 15:28N 26°07' W 080°06'0 0.0
2016-May-24 14:28N 26°07' W 080°06'0 0.0
2016-May-24 13:28N 26°07' W 080°06'0 0.0
2016-May-24 12:31N 26°07' W 080°06'0 0.0
2016-May-24 11:31N 26°07' W 080°06'0 0.0
2016-May-24 10:31N 26°07' W 080°06'0 0.0
2016-May-24 09:31N 26°07' W 080°06'0 0.0
2016-May-24 08:31N 26°07' W 080°06'0 0.0
2016-May-24 07:31N 26°07' W 080°06'0 0.0
2016-May-24 06:22N 26°07' W 080°06'0 0.0
2016-May-24 05:25N 26°07' W 080°06'0 0.0
2016-May-24 04:25N 26°07' W 080°06'0 0.0
2016-May-24 03:25N 26°07' W 080°06'0 0.0
2016-May-24 02:28N 26°07' W 080°06'0 0.0
2016-May-24 01:28N 26°07' W 080°06'0 0.0
2016-May-24 00:28N 26°07' W 080°06'0 0.0
2016-May-23 23:31N 26°07' W 080°06'0 0.0
2016-May-23 22:31N 26°07' W 080°06'0 0.0
2016-May-23 21:31N 26°07' W 080°06'0 0.0
2016-May-23 20:31N 26°07' W 080°06'0 0.0
2016-May-23 19:31N 26°07' W 080°06'0 0.0
2016-May-23 18:31N 26°07' W 080°06'0 0.0
2016-May-23 17:31N 26°07' W 080°06'0 0.0
2016-May-23 16:22N 26°07' W 080°06'0 0.0
2016-May-23 15:22N 26°07' W 080°06'0 0.0
2016-May-23 14:25N 26°07' W 080°06'0 0.0
2016-May-23 13:25N 26°07' W 080°06'0 0.0
2016-May-23 12:25N 26°07' W 080°06'0 0.0
2016-May-23 11:28N 26°07' W 080°06'0 0.0
2016-May-23 10:28N 26°07' W 080°06'0 0.0
2016-May-23 09:28N 26°07' W 080°06'0 0.0
2016-May-23 08:31N 26°07' W 080°06'0 0.0
2016-May-23 07:31N 26°07' W 080°06'0 0.0
2016-May-23 06:31N 26°07' W 080°06'0 0.0
2016-May-23 05:31N 26°07' W 080°06'0 0.0
2016-May-23 04:31N 26°07' W 080°06'0 0.0
2016-May-23 03:31N 26°07' W 080°06'0 0.0
2016-May-23 02:31N 26°07' W 080°06'0 0.0
2016-May-23 01:22N 26°07' W 080°06'0 0.0
2016-May-23 00:25N 26°07' W 080°06'0 0.0
2016-May-22 23:25N 26°07' W 080°06'0 0.0
2016-May-22 22:25N 26°07' W 080°06'0 0.0
2016-May-22 21:28N 26°07' W 080°06'0 0.0
2016-May-22 20:28N 26°07' W 080°06'0 0.0
2016-May-22 19:28N 26°07' W 080°06'0 0.0
2016-May-22 18:31N 26°07' W 080°06'0 0.0
2016-May-22 17:31N 26°07' W 080°06'0 0.0
2016-May-22 16:31N 26°07' W 080°06'0 0.0
2016-May-22 15:28N 26°07' W 080°06'0 0.0
2016-May-22 14:31N 26°07' W 080°06'0 0.0
2016-May-22 13:31N 26°07' W 080°06'0 0.0
2016-May-22 12:31N 26°07' W 080°06'0 0.0
2016-May-22 11:19N 26°07' W 080°06'0 0.0
2016-May-22 10:25N 26°07' W 080°06'0 0.0
2016-May-22 09:25N 26°07' W 080°06'0 0.0
2016-May-22 08:25N 26°07' W 080°06'0 0.0
2016-May-22 07:28N 26°07' W 080°06'0 0.0
2016-May-22 06:28N 26°07' W 080°06'0 0.0
2016-May-22 05:28N 26°07' W 080°06'0 0.0
2016-May-22 04:31N 26°07' W 080°06'0 0.0
2016-May-22 03:31N 26°07' W 080°06'0 0.0
2016-May-22 02:31N 26°07' W 080°06'0 0.0
2016-May-22 01:31N 26°07' W 080°06'0 0.0
2016-May-22 00:31N 26°07' W 080°06'0 0.0
2016-May-21 23:31N 26°07' W 080°06'0 0.0
2016-May-21 22:31N 26°07' W 080°06'0 0.0
2016-May-21 21:22N 26°07' W 080°06'0 0.0
2016-May-21 20:19N 26°07' W 080°06'0 0.0
2016-May-21 19:19N 26°07' W 080°06'0 0.0
2016-May-21 18:25N 26°07' W 080°06'0 0.0
2016-May-21 17:25N 26°07' W 080°06'0 0.0
2016-May-21 16:25N 26°07' W 080°06'0 0.0
2016-May-21 15:28N 26°07' W 080°06'0 0.0
2016-May-21 14:16N 26°07' W 080°06'0 0.0
2016-May-21 13:31N 26°07' W 080°06'0 0.0
2016-May-21 12:31N 26°07' W 080°06'0 0.0
2016-May-21 11:31N 26°07' W 080°06'0 0.0
2016-May-21 10:31N 26°07' W 080°06'0 0.0
2016-May-21 09:31N 26°07' W 080°06'0 0.0
2016-May-21 08:31N 26°07' W 080°06'0 0.0
2016-May-21 07:31N 26°07' W 080°06'0 0.0
2016-May-21 06:22N 26°07' W 080°06'0 0.0
2016-May-21 05:25N 26°07' W 080°06'0 0.0
2016-May-21 04:22N 26°07' W 080°06'0 0.0
2016-May-21 03:25N 26°07' W 080°06'0 0.0
2016-May-21 02:28N 26°07' W 080°06'0 0.0
2016-May-21 01:28N 26°07' W 080°06'0 0.0
2016-May-21 00:25N 26°07' W 080°06'0 0.0
2016-May-20 23:31N 26°07' W 080°06'0 0.0
2016-May-20 22:31N 26°07' W 080°06'0 0.0
2016-May-20 21:31N 26°07' W 080°06'0 0.0
2016-May-20 20:28N 26°07' W 080°06'0 0.0
2016-May-20 19:31N 26°07' W 080°06'0 0.0
2016-May-20 18:22N 26°07' W 080°06'  

Dump ship's entire track history